Terminal Aerodrome Forecast
Issued by NWS Cleveland, OH

Home | Current Version | Previous Version | Graphics & Text | Print | Product List | Glossary On
Versions: 1 2 3 4 5 6 7 8 9 10 11 12 13 14 15 16 17 18 19 20 21
000
FTUS41 KCLE 182126 AAA
TAFTOL
TAF AMD
KTOL 182126Z 1821/1918 33015G25KT P6SM OVC002
     FM190000 31020G35KT 4SM -SHRA OVC005
     FM190500 30020G38KT P6SM OVC010
     FM191000 28015G30KT P6SM OVC030=

USA.gov is the U.S. government's official web portal to all federal, state and local government web resources and services.